createdAt,value
2022-12-09T00:00:03.224Z,126.57
2022-12-09T00:02:45.442Z,126.80
2022-12-09T00:05:35.086Z,126.30
2022-12-09T00:08:23.987Z,127.07
2022-12-09T00:11:06.233Z,125.85
2022-12-09T00:13:58.904Z,127.80
2022-12-09T00:16:47.969Z,127.10
2022-12-09T00:19:30.449Z,121.15
2022-12-09T00:22:19.006Z,122.32
2022-12-09T00:25:01.029Z,125.13
2022-12-09T00:27:49.887Z,123.72
2022-12-09T00:30:39.187Z,122.38
2022-12-09T00:33:21.142Z,125.63
2022-12-09T00:36:15.050Z,119.93
2022-12-09T00:38:58.456Z,120.72
2022-12-09T00:44:29.160Z,120.15
2022-12-09T00:47:18.114Z,118.03
2022-12-09T00:50:00.325Z,122.40
2022-12-09T00:52:49.869Z,123.82
2022-12-09T00:55:39.055Z,121.75
2022-12-09T00:58:27.763Z,121.50
2022-12-09T01:01:16.991Z,122.30
2022-12-09T01:03:59.791Z,125.32
2022-12-09T01:06:49.818Z,121.22
2022-12-09T01:09:32.298Z,119.22
2022-12-09T01:12:21.181Z,122.47
2022-12-09T01:15:03.085Z,123.63
2022-12-09T01:17:52.790Z,122.07
2022-12-09T01:20:43.340Z,119.97
2022-12-09T01:23:24.912Z,120.05
2022-12-09T01:26:08.548Z,118.38
2022-12-09T01:28:59.882Z,120.13
2022-12-09T01:31:48.841Z,116.93
2022-12-09T01:34:45.116Z,117.90
2022-12-09T01:37:34.800Z,115.47
2022-12-09T01:40:22.126Z,115.25
2022-12-09T01:43:11.127Z,115.03
2022-12-09T01:45:53.223Z,114.45
2022-12-09T01:48:45.962Z,111.97
2022-12-09T01:54:19.837Z,112.20
2022-12-09T01:57:03.243Z,109.75
2022-12-09T01:59:53.909Z,109.30
2022-12-09T02:02:37.225Z,111.78
2022-12-09T02:05:26.948Z,109.97
2022-12-09T02:08:09.269Z,109.85
2022-12-09T02:11:46.153Z,113.05
2022-12-09T02:14:49.137Z,113.25
2022-12-09T02:17:54.849Z,115.93
2022-12-09T02:21:11.831Z,115.07
2022-12-09T02:24:09.709Z,117.10
2022-12-09T02:27:12.887Z,120.43
2022-12-09T02:30:15.412Z,122.30
2022-12-09T02:33:31.039Z,121.40
2022-12-09T02:36:19.442Z,122.32
2022-12-09T02:39:07.949Z,125.82
2022-12-09T02:41:53.498Z,122.07
2022-12-09T02:44:43.968Z,126.53
2022-12-09T02:47:33.257Z,127.40
2022-12-09T02:50:27.835Z,126.28
2022-12-09T02:53:21.791Z,132.02
2022-12-09T02:56:12.104Z,137.02
2022-12-09T02:59:00.919Z,134.65
2022-12-09T03:01:56.183Z,139.63
2022-12-09T03:04:47.235Z,138.57
2022-12-09T03:07:46.867Z,144.63
2022-12-09T03:10:44.866Z,140.23
2022-12-09T03:14:04.954Z,143.38
2022-12-09T03:16:56.982Z,145.07
2022-12-09T03:20:16.037Z,145.80
2022-12-09T03:23:08.861Z,144.45
2022-12-09T03:26:02.839Z,145.52
2022-12-09T03:28:57.902Z,140.82
2022-12-09T03:31:42.252Z,143.23
2022-12-09T03:34:40.794Z,142.80
2022-12-09T03:37:32.937Z,141.85
2022-12-09T03:40:19.351Z,145.70
2022-12-09T03:43:17.857Z,144.70
2022-12-09T03:46:07.209Z,145.25
2022-12-09T03:48:49.280Z,142.30
2022-12-09T03:51:57.966Z,141.43
2022-12-09T03:55:05.936Z,142.57
2022-12-09T03:57:58.199Z,140.40
2022-12-09T04:00:42.928Z,140.82
2022-12-09T04:03:31.965Z,141.65
2022-12-09T04:06:14.188Z,134.77
2022-12-09T04:09:03.216Z,116.30
2022-12-09T04:11:51.885Z,117.18
2022-12-09T04:14:40.226Z,112.40
2022-12-09T04:17:21.987Z,113.22
2022-12-09T04:20:13.434Z,122.70
2022-12-09T04:22:55.750Z,123.63
2022-12-09T04:25:46.102Z,127.10
2022-12-09T04:28:34.811Z,120.80
2022-12-09T04:31:18.938Z,129.27
2022-12-09T04:34:09.883Z,139.75
2022-12-09T04:36:52.211Z,143.32
2022-12-09T04:39:41.148Z,139.15
2022-12-09T04:42:23.186Z,131.35
2022-12-09T04:45:11.818Z,116.90
2022-12-09T04:48:01.090Z,110.35
2022-12-09T04:50:43.514Z,107.57
2022-12-09T04:53:32.765Z,97.15
2022-12-09T04:56:27.247Z,93.43
2022-12-09T04:59:16.076Z,96.53
2022-12-09T05:01:58.609Z,91.47
2022-12-09T05:04:50.004Z,89.47
2022-12-09T05:07:32.835Z,84.80
2022-12-09T05:10:22.153Z,85.28
2022-12-09T05:13:04.471Z,78.72
2022-12-09T05:15:53.970Z,82.32
2022-12-09T05:18:43.164Z,81.80
2022-12-09T05:21:31.942Z,83.28
2022-12-09T05:24:14.279Z,82.57
2022-12-09T05:27:03.264Z,86.55
2022-12-09T05:29:45.332Z,80.03
2022-12-09T05:32:37.036Z,77.28
2022-12-09T05:35:25.506Z,70.57
2022-12-09T05:38:09.011Z,66.05
2022-12-09T05:40:51.394Z,61.95
2022-12-09T05:43:40.879Z,62.90
2022-12-09T05:46:30.939Z,67.50
2022-12-09T05:49:13.884Z,66.80
2022-12-09T05:52:02.160Z,69.57
2022-12-09T05:54:46.027Z,64.00
2022-12-09T05:57:34.379Z,63.75
2022-12-09T06:00:18.192Z,63.67
2022-12-09T06:03:00.263Z,67.25
2022-12-09T06:05:48.993Z,65.05
2022-12-09T06:08:31.853Z,66.50
2022-12-09T06:11:29.134Z,66.22
2022-12-09T06:14:12.711Z,66.60
2022-12-09T06:17:02.052Z,66.03
2022-12-09T06:19:44.162Z,64.70
2022-12-09T06:22:33.914Z,69.60
2022-12-09T06:25:16.270Z,68.10
2022-12-09T06:28:06.911Z,64.82
2022-12-09T06:30:56.305Z,68.20
2022-12-09T06:33:54.795Z,68.70
2022-12-09T06:36:39.234Z,65.65
2022-12-09T06:39:27.919Z,67.88
2022-12-09T06:42:10.261Z,71.32
2022-12-09T06:44:58.869Z,71.80
2022-12-09T06:47:41.335Z,73.57
2022-12-09T06:50:30.169Z,88.00
2022-12-09T06:53:13.258Z,85.90
2022-12-09T06:56:05.206Z,86.93
2022-12-09T06:59:01.209Z,86.30
2022-12-09T07:01:49.636Z,90.28
2022-12-09T07:04:32.213Z,96.35
2022-12-09T07:07:16.188Z,93.78
2022-12-09T07:10:04.897Z,95.68
2022-12-09T07:12:54.232Z,108.38
2022-12-09T07:15:36.407Z,106.47
2022-12-09T07:18:25.936Z,106.40
2022-12-09T07:21:18.208Z,106.47
2022-12-09T07:24:11.915Z,108.05
2022-12-09T07:26:55.235Z,115.93
2022-12-09T07:29:45.165Z,114.10
2022-12-09T07:32:27.495Z,105.13
2022-12-09T07:35:18.084Z,73.90
2022-12-09T07:38:00.501Z,44.17
2022-12-09T07:40:50.345Z,34.25
2022-12-09T07:43:32.398Z,29.02
2022-12-09T07:46:25.142Z,23.52
2022-12-09T07:49:09.259Z,23.38
2022-12-09T07:51:58.132Z,23.05
2022-12-09T07:54:40.044Z,21.33
2022-12-09T07:57:29.124Z,20.52
2022-12-09T08:00:12.218Z,18.55
2022-12-09T08:03:01.909Z,17.02
2022-12-09T08:05:44.274Z,13.93
2022-12-09T08:08:33.059Z,12.10
2022-12-09T08:11:31.712Z,11.35
2022-12-09T08:14:20.982Z,12.63
2022-12-09T08:17:03.461Z,12.52
2022-12-09T08:19:53.123Z,13.13
2022-12-09T08:22:35.102Z,11.45
2022-12-09T08:25:25.174Z,11.07
2022-12-09T08:28:07.166Z,11.80
2022-12-09T08:30:56.390Z,11.95
2022-12-09T08:33:39.270Z,13.27
2022-12-09T08:36:33.901Z,13.18
2022-12-09T08:39:17.485Z,13.95
2022-12-09T08:42:07.382Z,14.10
2022-12-09T08:44:55.846Z,14.50
2022-12-09T08:47:49.978Z,14.57
2022-12-09T08:50:32.345Z,15.93
2022-12-09T08:53:21.012Z,14.60
2022-12-09T08:56:03.267Z,14.38
2022-12-09T08:58:51.831Z,13.70
2022-12-09T09:01:43.021Z,13.23
2022-12-09T09:04:31.990Z,13.73
2022-12-09T09:07:21.963Z,14.35
2022-12-09T09:10:11.856Z,15.45
2022-12-09T09:12:54.860Z,15.90
2022-12-09T09:15:39.930Z,14.90
2022-12-09T09:18:30.208Z,16.65
2022-12-09T09:21:20.347Z,15.77
2022-12-09T09:24:03.887Z,14.10
2022-12-09T09:26:46.933Z,12.13
2022-12-09T09:29:38.277Z,11.45
2022-12-09T09:32:26.456Z,12.60
2022-12-09T09:35:23.367Z,11.50
2022-12-09T09:38:11.381Z,13.77
2022-12-09T09:40:54.029Z,14.02
2022-12-09T09:43:46.502Z,12.63
2022-12-09T09:46:44.042Z,11.52
2022-12-09T09:49:57.134Z,10.88
2022-12-09T09:52:46.011Z,11.52
2022-12-09T09:55:58.263Z,10.65
2022-12-09T09:58:53.409Z,9.02
2022-12-09T10:01:45.044Z,7.38
2022-12-09T10:05:07.141Z,7.55
2022-12-09T10:07:55.781Z,8.93
2022-12-09T10:11:17.063Z,8.27
2022-12-09T10:14:25.464Z,8.98
2022-12-09T10:17:21.337Z,9.05
2022-12-09T10:20:15.216Z,8.85
2022-12-09T10:23:15.477Z,8.98
2022-12-09T10:26:07.872Z,7.90
2022-12-09T10:29:01.918Z,8.95
2022-12-09T10:31:50.654Z,7.65
2022-12-09T10:34:39.957Z,7.90
2022-12-09T10:37:48.542Z,8.25
2022-12-09T10:41:01.314Z,9.30
2022-12-09T10:43:47.366Z,12.18
2022-12-09T10:46:37.188Z,14.43
2022-12-09T10:49:34.869Z,12.30
2022-12-09T10:52:31.023Z,12.23
2022-12-09T10:55:14.236Z,9.80
2022-12-09T10:58:26.239Z,9.93
2022-12-09T11:01:18.305Z,10.02
2022-12-09T11:04:08.083Z,9.10
2022-12-09T11:06:58.767Z,8.65
2022-12-09T11:09:45.038Z,8.88
2022-12-09T11:12:41.096Z,9.65
2022-12-09T11:15:34.759Z,9.18
2022-12-09T11:18:37.957Z,8.63
2022-12-09T11:21:50.887Z,10.13
2022-12-09T11:24:40.834Z,10.25
2022-12-09T11:27:46.761Z,9.93
2022-12-09T11:30:31.784Z,10.23
2022-12-09T11:33:45.009Z,11.27
2022-12-09T11:36:37.038Z,10.52
2022-12-09T11:39:41.799Z,10.27
2022-12-09T11:42:25.715Z,10.32
2022-12-09T11:45:20.836Z,11.10
2022-12-09T11:48:33.957Z,12.25
2022-12-09T11:51:56.859Z,14.68
2022-12-09T11:54:57.983Z,22.85
2022-12-09T11:57:58.784Z,28.15
2022-12-09T12:00:52.423Z,30.63
2022-12-09T12:03:52.772Z,26.20
2022-12-09T12:07:19.321Z,23.23
2022-12-09T12:10:13.684Z,20.60
2022-12-09T12:13:24.781Z,19.58
2022-12-09T12:16:19.833Z,18.67
2022-12-09T12:19:07.550Z,16.80
2022-12-09T12:22:34.953Z,16.98
2022-12-09T12:25:52.782Z,17.25
2022-12-09T12:28:41.215Z,18.55
2022-12-09T12:31:35.748Z,28.65
2022-12-09T12:34:40.807Z,31.98
2022-12-09T12:37:48.670Z,36.15
2022-12-09T12:41:35.818Z,47.70
2022-12-09T12:44:38.805Z,50.90
2022-12-09T12:47:36.773Z,50.40
2022-12-09T12:50:40.795Z,50.80
2022-12-09T12:53:41.070Z,48.90
2022-12-09T12:56:42.819Z,46.10
2022-12-09T13:00:01.276Z,44.75
2022-12-09T13:03:12.834Z,38.47
2022-12-09T13:06:00.226Z,34.40
2022-12-09T13:09:03.797Z,32.58
2022-12-09T13:12:12.047Z,30.30
2022-12-09T13:15:02.797Z,28.08
2022-12-09T13:17:45.510Z,27.92
2022-12-09T13:20:43.720Z,26.27
2022-12-09T13:23:41.176Z,24.17
2022-12-09T13:26:53.833Z,25.17
2022-12-09T13:29:52.209Z,23.92
2022-12-09T13:32:46.815Z,25.10
2022-12-09T13:35:52.935Z,24.50
2022-12-09T13:38:47.741Z,25.30
2022-12-09T13:41:58.775Z,26.30
2022-12-09T13:44:47.396Z,25.90
2022-12-09T13:47:42.761Z,25.55
2022-12-09T13:50:38.843Z,25.23
2022-12-09T13:53:28.240Z,28.45
2022-12-09T13:56:15.732Z,25.95
2022-12-09T13:58:57.953Z,24.92
2022-12-09T14:02:07.727Z,26.15
2022-12-09T14:05:06.931Z,24.35
2022-12-09T14:08:09.883Z,25.25
2022-12-09T14:10:54.154Z,25.92
2022-12-09T14:13:47.817Z,26.63
2022-12-09T14:16:36.139Z,25.95
2022-12-09T14:19:33.885Z,26.05
2022-12-09T14:22:25.166Z,24.83
2022-12-09T14:29:53.720Z,27.63
2022-12-09T14:32:50.759Z,27.42
2022-12-09T14:35:42.565Z,24.92
2022-12-09T14:38:54.316Z,25.70
2022-12-09T14:42:00.689Z,25.95
2022-12-09T14:44:55.727Z,27.25
2022-12-09T14:47:50.112Z,24.33
2022-12-09T14:50:36.761Z,25.45
2022-12-09T14:53:32.765Z,25.98
2022-12-09T14:56:15.098Z,25.63
2022-12-09T14:59:28.756Z,27.65
2022-12-09T15:02:31.325Z,26.15
2022-12-09T15:05:24.812Z,27.80
2022-12-09T15:08:07.087Z,29.30
2022-12-09T15:10:55.748Z,29.35
2022-12-09T15:13:45.811Z,28.45
2022-12-09T15:16:28.300Z,28.08
2022-12-09T15:19:30.746Z,30.50
2022-12-09T15:22:38.668Z,30.52
2022-12-09T15:25:30.155Z,31.38
2022-12-09T15:28:26.609Z,30.55
2022-12-09T15:31:31.767Z,32.65
2022-12-09T15:34:27.392Z,33.10
2022-12-09T15:37:13.805Z,33.17
2022-12-09T15:40:09.666Z,37.22
2022-12-09T15:43:02.744Z,38.15
2022-12-09T15:45:53.087Z,50.08
2022-12-09T15:48:41.824Z,60.95
2022-12-09T15:51:33.688Z,90.40
2022-12-09T15:54:28.701Z,121.75
2022-12-09T15:57:17.510Z,148.07
2022-12-09T16:00:13.002Z,151.45
2022-12-09T16:02:55.382Z,152.65
2022-12-09T16:05:44.863Z,155.02
2022-12-09T16:08:58.783Z,153.27
2022-12-09T16:11:43.016Z,144.75
2022-12-09T16:14:33.811Z,135.65
2022-12-09T16:17:31.687Z,126.55
2022-12-09T16:20:49.771Z,132.82
2022-12-09T16:23:38.845Z,130.35
2022-12-09T16:26:49.713Z,125.38
2022-12-09T16:29:44.675Z,121.43
2022-12-09T16:32:44.823Z,106.35
2022-12-09T16:35:46.039Z,93.05
2022-12-09T16:38:28.813Z,83.25
2022-12-09T16:41:20.264Z,74.20
2022-12-09T16:44:04.791Z,69.63
2022-12-09T16:46:54.133Z,70.93
2022-12-09T16:49:35.752Z,70.45
2022-12-09T16:52:30.235Z,78.13
2022-12-09T16:55:24.790Z,82.07
2022-12-09T16:58:13.092Z,78.25
2022-12-09T17:00:55.854Z,70.50
2022-12-09T17:04:01.816Z,63.65
2022-12-09T17:06:44.087Z,62.47
2022-12-09T17:09:32.755Z,59.00
2022-12-09T17:12:15.189Z,61.35
2022-12-09T17:15:03.674Z,58.95
2022-12-09T17:17:48.909Z,58.40
2022-12-09T17:20:37.723Z,55.58
2022-12-09T17:23:21.337Z,57.17
2022-12-09T17:26:12.066Z,59.67
2022-12-09T17:29:02.224Z,55.47
2022-12-09T17:31:52.798Z,57.00
2022-12-09T17:34:36.265Z,60.33
2022-12-09T17:37:25.653Z,58.58
2022-12-09T17:40:14.741Z,59.38
2022-12-09T17:42:57.059Z,59.83
2022-12-09T17:45:46.042Z,59.88
2022-12-09T17:48:37.031Z,58.85
2022-12-09T17:51:21.733Z,59.88
2022-12-09T17:54:04.143Z,57.78
2022-12-09T17:56:54.794Z,59.65
2022-12-09T17:59:37.123Z,59.92
2022-12-09T18:02:26.787Z,62.85
2022-12-09T18:05:16.770Z,59.03
2022-12-09T18:07:59.310Z,60.10
2022-12-09T18:10:47.805Z,62.35
2022-12-09T18:13:31.074Z,59.97
2022-12-09T18:16:20.760Z,61.45
2022-12-09T18:19:03.164Z,60.75
2022-12-09T18:21:52.648Z,60.40
2022-12-09T18:24:35.108Z,62.50
2022-12-09T18:27:23.771Z,61.58
2022-12-09T18:30:06.294Z,62.65
2022-12-09T18:32:55.773Z,63.00
2022-12-09T18:35:38.047Z,64.05
2022-12-09T18:38:26.789Z,61.33
2022-12-09T18:41:09.143Z,62.60
2022-12-09T18:43:59.836Z,63.58
2022-12-09T18:46:45.092Z,61.40
2022-12-09T18:49:35.776Z,62.65
2022-12-09T18:52:18.102Z,65.13
2022-12-09T18:55:06.787Z,63.88
2022-12-09T18:57:55.928Z,64.45
2022-12-09T19:00:46.166Z,63.83
2022-12-09T19:03:28.948Z,62.08
2022-12-09T19:06:40.715Z,64.72
2022-12-09T19:09:33.784Z,63.58
2022-12-09T19:12:56.503Z,65.63
2022-12-09T19:15:27.632Z,66.60
2022-12-09T19:18:17.915Z,72.50
2022-12-09T19:21:09.820Z,69.50
2022-12-09T19:24:01.373Z,70.10
2022-12-09T19:26:51.029Z,69.35
2022-12-09T19:29:34.175Z,70.20
2022-12-09T19:32:51.410Z,76.15
2022-12-09T19:35:25.289Z,74.65
2022-12-09T19:38:13.757Z,75.55
2022-12-09T19:40:56.260Z,74.43
2022-12-09T19:43:44.780Z,73.10
2022-12-09T19:46:29.960Z,75.05
2022-12-09T19:49:23.773Z,75.50
2022-12-09T19:52:06.018Z,71.68
2022-12-09T19:54:54.773Z,74.90
2022-12-09T19:57:43.705Z,72.45
2022-12-09T20:00:26.023Z,72.53
2022-12-09T20:03:14.788Z,72.93
2022-12-09T20:06:03.761Z,70.20
2022-12-09T20:08:47.161Z,68.22
2022-12-09T20:11:37.700Z,69.40
2022-12-09T20:14:21.994Z,70.63
2022-12-09T20:17:10.712Z,70.97
2022-12-09T20:19:53.096Z,72.93
2022-12-09T20:22:41.762Z,71.45
2022-12-09T20:25:30.678Z,71.70
2022-12-09T20:28:13.078Z,69.05
2022-12-09T20:31:07.717Z,69.90
2022-12-09T20:33:55.435Z,72.57
2022-12-09T20:36:46.717Z,68.97
2022-12-09T20:39:35.041Z,72.25
2022-12-09T20:42:16.748Z,71.53
2022-12-09T20:45:05.040Z,73.80
2022-12-09T20:47:47.749Z,70.60
2022-12-09T20:50:33.669Z,71.60
2022-12-09T20:53:26.769Z,78.60
2022-12-09T20:56:16.018Z,79.65
2022-12-09T20:59:01.731Z,72.90
2022-12-09T21:01:51.083Z,71.95
2022-12-09T21:04:33.837Z,75.40
2022-12-09T21:07:16.063Z,74.18
2022-12-09T21:10:04.910Z,71.95
2022-12-09T21:12:47.129Z,78.47
2022-12-09T21:15:35.756Z,77.18
2022-12-09T21:18:24.056Z,77.70
2022-12-09T21:21:06.743Z,76.35
2022-12-09T21:23:55.719Z,75.40
2022-12-09T21:26:37.969Z,73.95
2022-12-09T21:29:31.628Z,76.88
2022-12-09T21:32:26.718Z,76.28
2022-12-09T21:35:16.107Z,75.85
2022-12-09T21:37:57.740Z,74.93
2022-12-09T21:40:39.920Z,80.35
2022-12-09T21:43:28.704Z,83.95
2022-12-09T21:46:20.753Z,85.10
2022-12-09T21:49:04.485Z,79.03
2022-12-09T21:51:53.752Z,81.82
2022-12-09T21:54:36.014Z,84.47
2022-12-09T21:57:24.768Z,85.55
2022-12-09T22:00:07.379Z,85.75
2022-12-09T22:02:59.695Z,85.63
2022-12-09T22:05:41.982Z,83.18
2022-12-09T22:08:30.708Z,87.20
2022-12-09T22:11:23.991Z,85.95
2022-12-09T22:14:14.693Z,91.13
2022-12-09T22:16:57.050Z,94.00
2022-12-09T22:19:45.700Z,100.05
2022-12-09T22:22:34.694Z,103.00
2022-12-09T22:25:22.973Z,111.28
2022-12-09T22:28:05.735Z,113.10
2022-12-09T22:30:54.095Z,117.47
2022-12-09T22:33:42.685Z,115.93
2022-12-09T22:36:25.996Z,111.43
2022-12-09T22:39:15.750Z,113.78
2022-12-09T22:41:59.116Z,113.68
2022-12-09T22:44:47.638Z,113.45
2022-12-09T22:47:29.955Z,115.38
2022-12-09T22:50:18.741Z,113.43
2022-12-09T22:53:01.009Z,110.68
2022-12-09T22:55:55.698Z,111.53
2022-12-09T22:58:44.653Z,112.88
2022-12-09T23:01:36.723Z,110.07
2022-12-09T23:04:26.651Z,112.75
2022-12-09T23:07:08.847Z,113.75
2022-12-09T23:09:57.662Z,114.70
2022-12-09T23:12:39.903Z,113.82
2022-12-09T23:15:28.756Z,115.03
2022-12-09T23:18:17.024Z,112.30
2022-12-09T23:20:58.721Z,111.30
2022-12-09T23:23:49.006Z,113.65
2022-12-09T23:26:35.582Z,112.55
2022-12-09T23:29:18.100Z,113.70
2022-12-09T23:32:06.594Z,113.00
2022-12-09T23:34:55.599Z,115.28
2022-12-09T23:37:39.006Z,112.13
2022-12-09T23:40:27.710Z,114.10
2022-12-09T23:43:09.959Z,112.97
2022-12-09T23:45:58.673Z,114.40
2022-12-09T23:48:47.739Z,109.35
2022-12-09T23:51:39.584Z,110.50
2022-12-09T23:54:30.697Z,105.72
2022-12-09T23:57:12.875Z,98.28
